Hardinsburg, IN (47125)

5:00 AM EST on January 17, 2017 (GMT -0500)
Jacobi Airfield (private) | | Change Station
Active Advisory: Flood Warning

Elev 761 ft 38.41 °N, 86.13 °W | Updated 6 seconds ago

Overcast
Overcast
58.8 °F
Feels Like 58.8 °F
N
12.0
Wind Variable Wind from SSW

Today
High -- | Low -- °F
--% Chance of Precip.
Yesterday
High -- | Low -- °F
Precip. -- in
Pressure 29.90 in
Visibility 10.0 miles
Clouds Mostly Cloudy 1600 ft
Overcast 2700 ft
Dew Point 57 °F
Humidity 95%
Rainfall 0.23 in
Snow Depth Not available.
8:00 AM 5:50 PM
Waning Gibbous, 74% visible
METAR KSDF 170956Z 19016G21KT 10SM BKN016 OVC027 16/13 A2991 RMK AO2 SLP125 T01610133 $
Pressure 29.90 in
Visibility 10.0 miles
Clouds Mostly Cloudy 1600 ft
Overcast 2700 ft
Dew Point 57 °F
Humidity 95%
Rainfall 0.23 in
Snow Depth Not available.
8:00 AM 5:50 PM
Waning Gibbous, 74% visible
METAR KSDF 170956Z 19016G21KT 10SM BKN016 OVC027 16/13 A2991 RMK AO2 SLP125 T01610133 $

Get Your Daily Forecast Email!

Thanks for signing up!

Be on the lookout for a verification email in your inbox.

You'll start receiving the daily forecast at 8 AM.

×

10-Day Weather Forecast

Almanac

Astronomy

Jan. 17, 2017 Rise Set
Actual Time
Civil Twilight
Nautical Twilight
Astronomical Twilight
Moon
Length of Visible Light
Length of Day
Tomorrow will be .
, % of the Moon is Illuminated

Today's Extremes

State Highs State Lows

Community

WunderPhotos

Upload Photos

1,962,540 photos uploaded!

WunderBlog® & News

Nearby

Air Quality

  Air Quality AQ Index Pollutant
Not available.

Snow Depth

Station Depth Elevation

Earthquake Activity

City Distance Mag. Time & Date
Minimum magnitude displayed is 2.5.

Coastal Water Temperatures

Place Temperature

Stations

Nearby Weather Stations

Station Location Temp. Windchill Dew Point Humidity Wind Precip. Elev Updated Type
                   

Watches & Warnings

Flood Warning
Issued: 1:24 PM EST Jan. 16, 2017 – National Weather Service

The Flood Warning continues for
the muscatatuck river at Wheeler Hollow.
* From late Tuesday night to Wednesday evening.
* Flood stage is 18.0 feet.
* Forecast... the river is forecast to have a maximum value of 18.1
feet Wednesday morning.
* At 18.0 feet... floods area in a few low spots and Woodland areas
along the river. Residential property is not directly at this
point.


Lat... Lon 3878 8591 3878 8603 3880 8615 3876 8618
      3873 8605 3874 8591